Marchicora — V2OQ7 — position and weather

sailwx.info

Track history (hours):
 
Tides and Currents Weather Stations Pressure Air Temp Water Temp Dewpoint Dewpoint Depression Visibility Wind Speed Wind Dir Waves Ship Positions

Marchicora

Last reported at 2014-Aug-27 15:29 UTC. Time now 2014-Aug-28 03:22 UTC.
Position N 57°42' E 018°02'.

Length 153 m; draft 9.9 m.

Type: Cargo ship. MMSI: 304653000.

Date/timePositionNaut miles runAvg speedWind from/ knotsBaromVisibWave heightAir tempDewpointWater temp
2014-Aug-27 15:29N 57°42' E 018°02'1211.9
2014-Aug-27 14:31N 57°31' E 017°51'1112.0
2014-Aug-27 13:33N 57°21' E 017°43'1212.2
2014-Aug-27 12:33N 57°10' E 017°34'1312.6
2014-Aug-27 11:33N 56°58' E 017°26'9311.6
2014-Aug-27 03:33N 55°44' E 015°44'1412.3
2014-Aug-27 02:24N 55°37' E 015°21'1012.2
2014-Aug-27 01:32N 55°32' E 015°05'1212.6
2014-Aug-27 00:33N 55°26' E 014°46'1211.9
2014-Aug-26 23:33N 55°18' E 014°31'1212.3
2014-Aug-26 22:33N 55°08' E 014°17'1211.8
2014-Aug-26 21:33N 55°00' E 014°02'1312.3
2014-Aug-26 20:32N 54°56' E 013°41'1212.4
2014-Aug-26 19:32N 54°52' E 013°21'1212.3
2014-Aug-26 18:33N 54°48' E 013°01'1111.4
2014-Aug-26 17:33N 54°44' E 012°43'1211.8
2014-Aug-26 16:33N 54°38' E 012°26'1211.6
2014-Aug-26 15:33N 54°28' E 012°15'1111.4
2014-Aug-26 14:33N 54°25' E 011°56'17210.0
2014-Aug-25 21:23N 57°17' E 011°31'1112.7
2014-Aug-25 20:33N 57°27' E 011°25'1312.6
2014-Aug-25 19:33N 57°35' E 011°08'1212.5
2014-Aug-25 18:33N 57°44' E 010°51'1211.9
2014-Aug-25 17:33N 57°48' E 010°30'1212.3
2014-Aug-25 16:33N 57°48' E 010°07'11411.3
2014-Aug-25 06:27N 56°33' E 007°27'1111.8
2014-Aug-25 05:33N 56°24' E 007°17'16511.8
2014-Aug-24 15:33N 54°04' E 004°47'1211.7
2014-Aug-24 14:33N 53°54' E 004°34'1111.2
2014-Aug-24 13:32N 53°46' E 004°21'13711.3
2014-Aug-24 01:26N 51°45' E 002°36'1213.7
2014-Aug-24 00:33N 51°36' E 002°23'1413.5
2014-Aug-23 23:30N 51°24' E 002°11'1213.2
2014-Aug-23 22:34N 51°13' E 002°02'1414.0
2014-Aug-23 21:34N 51°05' E 001°43'1313.3
2014-Aug-23 20:33N 50°55' E 001°29'  
2014-Aug-20 14:33N 38°53' W 009°52'2411.6
2014-Aug-20 12:31N 38°29' W 009°48'4911.7
2014-Aug-20 08:23N 37°42' W 009°34'1012.2
2014-Aug-20 07:34N 37°32' W 009°31'6610.6
2014-Aug-20 01:22N 36°38' W 008°44'1012.0
2014-Aug-20 00:34N 36°35' W 008°33'3611.5
2014-Aug-19 21:29N 36°24' W 007°51'1211.0
2014-Aug-19 20:23N 36°20' W 007°37'1010.7
2014-Aug-19 19:28N 36°17' W 007°25'1110.9
2014-Aug-19 18:29N 36°13' W 007°13'2410.9
2014-Aug-19 16:15N 36°06' W 006°44'911.1
2014-Aug-19 15:24N 36°03' W 006°33'5210.3
2014-Aug-19 10:23N 35°59' W 005°29'8 9.9
2014-Aug-19 09:34N 36°02' W 005°19'17711.5
2014-Aug-18 18:14N 36°31' W 001°44'3412.7
2014-Aug-18 15:32N 36°38' W 001°02'1212.5
2014-Aug-18 14:33N 36°40' W 000°46'2612.0
2014-Aug-18 12:21N 36°45' W 000°14'2312.3
2014-Aug-18 10:30N 36°50' E 000°14'1312.7
2014-Aug-18 09:30N 36°52' E 000°29'1212.3
2014-Aug-18 08:32N 36°55' E 000°44'1312.8
2014-Aug-18 07:33N 36°57' E 000°59'2612.5
2014-Aug-18 05:30N 37°02' E 001°31'4012.2
2014-Aug-18 02:12N 37°11' E 002°20'811.5
2014-Aug-18 01:32N 37°12' E 002°30'1111.6
2014-Aug-18 00:33N 37°14' E 002°44'  
Track history (hours):
 
Tides and Currents Weather Stations Pressure Air Temp Water Temp Dewpoint Dewpoint Depression Visibility Wind Speed Wind Dir Waves Ship Positions

Marchicora

Last reported at 2014-Aug-27 15:29 UTC. Time now 2014-Aug-28 03:22 UTC.
Position N 57°42' E 018°02'.

Length 153 m; draft 9.9 m.

Type: Cargo ship. MMSI: 304653000.

Date/timePositionNaut miles runAvg speedWind from/ knotsBaromVisibWave heightAir tempDewpointWater temp
2014-Aug-27 15:29N 57°42' E 018°02'1211.9
2014-Aug-27 14:31N 57°31' E 017°51'1112.0
2014-Aug-27 13:33N 57°21' E 017°43'1212.2
2014-Aug-27 12:33N 57°10' E 017°34'1312.6
2014-Aug-27 11:33N 56°58' E 017°26'9311.6
2014-Aug-27 03:33N 55°44' E 015°44'1412.3
2014-Aug-27 02:24N 55°37' E 015°21'1012.2
2014-Aug-27 01:32N 55°32' E 015°05'1212.6
2014-Aug-27 00:33N 55°26' E 014°46'1211.9
2014-Aug-26 23:33N 55°18' E 014°31'1212.3
2014-Aug-26 22:33N 55°08' E 014°17'1211.8
2014-Aug-26 21:33N 55°00' E 014°02'1312.3
2014-Aug-26 20:32N 54°56' E 013°41'1212.4
2014-Aug-26 19:32N 54°52' E 013°21'1212.3
2014-Aug-26 18:33N 54°48' E 013°01'1111.4
2014-Aug-26 17:33N 54°44' E 012°43'1211.8
2014-Aug-26 16:33N 54°38' E 012°26'1211.6
2014-Aug-26 15:33N 54°28' E 012°15'1111.4
2014-Aug-26 14:33N 54°25' E 011°56'17210.0
2014-Aug-25 21:23N 57°17' E 011°31'1112.7
2014-Aug-25 20:33N 57°27' E 011°25'1312.6
2014-Aug-25 19:33N 57°35' E 011°08'1212.5
2014-Aug-25 18:33N 57°44' E 010°51'1211.9
2014-Aug-25 17:33N 57°48' E 010°30'1212.3
2014-Aug-25 16:33N 57°48' E 010°07'11411.3
2014-Aug-25 06:27N 56°33' E 007°27'1111.8
2014-Aug-25 05:33N 56°24' E 007°17'16511.8
2014-Aug-24 15:33N 54°04' E 004°47'1211.7
2014-Aug-24 14:33N 53°54' E 004°34'1111.2
2014-Aug-24 13:32N 53°46' E 004°21'13711.3
2014-Aug-24 01:26N 51°45' E 002°36'1213.7
2014-Aug-24 00:33N 51°36' E 002°23'1413.5
2014-Aug-23 23:30N 51°24' E 002°11'1213.2
2014-Aug-23 22:34N 51°13' E 002°02'1414.0
2014-Aug-23 21:34N 51°05' E 001°43'1313.3
2014-Aug-23 20:33N 50°55' E 001°29'  
2014-Aug-20 14:33N 38°53' W 009°52'2411.6
2014-Aug-20 12:31N 38°29' W 009°48'4911.7
2014-Aug-20 08:23N 37°42' W 009°34'1012.2
2014-Aug-20 07:34N 37°32' W 009°31'6610.6
2014-Aug-20 01:22N 36°38' W 008°44'1012.0
2014-Aug-20 00:34N 36°35' W 008°33'3611.5
2014-Aug-19 21:29N 36°24' W 007°51'1211.0
2014-Aug-19 20:23N 36°20' W 007°37'1010.7
2014-Aug-19 19:28N 36°17' W 007°25'1110.9
2014-Aug-19 18:29N 36°13' W 007°13'2410.9
2014-Aug-19 16:15N 36°06' W 006°44'911.1
2014-Aug-19 15:24N 36°03' W 006°33'5210.3
2014-Aug-19 10:23N 35°59' W 005°29'8 9.9
2014-Aug-19 09:34N 36°02' W 005°19'17711.5
2014-Aug-18 18:14N 36°31' W 001°44'3412.7
2014-Aug-18 15:32N 36°38' W 001°02'1212.5
2014-Aug-18 14:33N 36°40' W 000°46'2612.0
2014-Aug-18 12:21N 36°45' W 000°14'2312.3
2014-Aug-18 10:30N 36°50' E 000°14'1312.7
2014-Aug-18 09:30N 36°52' E 000°29'1212.3
2014-Aug-18 08:32N 36°55' E 000°44'1312.8
2014-Aug-18 07:33N 36°57' E 000°59'2612.5
2014-Aug-18 05:30N 37°02' E 001°31'4012.2
2014-Aug-18 02:12N 37°11' E 002°20'811.5
2014-Aug-18 01:32N 37°12' E 002°30'1111.6
2014-Aug-18 00:33N 37°14' E 002°44'  

Dump ship's entire track history